createdAt,value
2018-06-15T00:00:17.811Z,5.70
2018-06-15T00:02:52.001Z,3.97
2018-06-15T00:05:20.977Z,3.80
2018-06-15T00:07:49.878Z,4.60
2018-06-15T00:10:18.801Z,3.40
2018-06-15T00:12:47.582Z,4.20
2018-06-15T00:15:16.461Z,4.10
2018-06-15T00:17:45.450Z,4.07
2018-06-15T00:20:14.203Z,4.30
2018-06-15T00:22:43.046Z,4.03
2018-06-15T00:25:11.860Z,3.87
2018-06-15T00:27:40.647Z,3.73
2018-06-15T00:30:09.539Z,3.73
2018-06-15T00:32:38.529Z,3.60
2018-06-15T00:35:07.786Z,3.93
2018-06-15T00:37:38.388Z,3.70
2018-06-15T00:40:07.205Z,4.03
2018-06-15T00:42:36.129Z,4.27
2018-06-15T00:45:04.988Z,4.03
2018-06-15T00:47:33.746Z,3.10
2018-06-15T00:50:02.950Z,4.13
2018-06-15T00:52:31.947Z,4.70
2018-06-15T00:55:00.849Z,3.97
2018-06-15T00:57:40.618Z,4.10
2018-06-15T01:00:09.486Z,4.30
2018-06-15T01:02:38.327Z,3.97
2018-06-15T01:05:07.474Z,3.93
2018-06-15T01:07:36.559Z,3.90
2018-06-15T01:10:05.563Z,4.27
2018-06-15T01:12:34.486Z,3.50
2018-06-15T01:15:03.427Z,5.00
2018-06-15T01:17:32.398Z,4.90
2018-06-15T01:20:01.419Z,4.27
2018-06-15T01:22:30.257Z,4.10
2018-06-15T01:24:59.139Z,4.03
2018-06-15T01:27:28.002Z,4.20
2018-06-15T01:29:56.780Z,4.20
2018-06-15T01:32:25.681Z,3.87
2018-06-15T01:34:55.096Z,3.63
2018-06-15T01:37:23.998Z,4.33
2018-06-15T01:39:52.962Z,4.33
2018-06-15T01:42:22.012Z,4.10
2018-06-15T01:44:50.854Z,4.30
2018-06-15T01:47:19.895Z,4.10
2018-06-15T01:49:48.707Z,4.60
2018-06-15T01:52:17.618Z,5.43
2018-06-15T01:54:46.701Z,3.80
2018-06-15T01:57:15.542Z,3.40
2018-06-15T01:59:44.440Z,4.50
2018-06-15T02:02:13.286Z,5.03
2018-06-15T02:04:42.342Z,4.37
2018-06-15T02:07:11.247Z,4.27
2018-06-15T02:09:40.354Z,4.20
2018-06-15T02:12:09.441Z,4.00
2018-06-15T02:14:38.602Z,4.67
2018-06-15T02:17:08.005Z,4.00
2018-06-15T02:19:37.078Z,3.80
2018-06-15T02:22:05.881Z,3.97
2018-06-15T02:24:34.890Z,4.33
2018-06-15T02:27:04.029Z,3.80
2018-06-15T02:29:32.868Z,3.77
2018-06-15T02:32:01.765Z,4.73
2018-06-15T02:34:30.986Z,3.97
2018-06-15T02:36:59.721Z,4.20
2018-06-15T02:39:28.627Z,4.90
2018-06-15T02:41:57.535Z,4.40
2018-06-15T02:44:26.346Z,4.20
2018-06-15T02:46:55.056Z,3.90
2018-06-15T02:49:23.771Z,4.53
2018-06-15T02:51:52.769Z,4.20
2018-06-15T02:54:21.807Z,4.33
2018-06-15T02:56:50.736Z,3.50
2018-06-15T02:59:19.537Z,4.13
2018-06-15T03:01:48.479Z,4.37
2018-06-15T03:04:17.474Z,4.67
2018-06-15T03:06:46.363Z,4.30
2018-06-15T03:09:15.790Z,3.83
2018-06-15T03:11:44.499Z,3.50
2018-06-15T03:14:13.432Z,3.70
2018-06-15T03:16:42.194Z,4.97
2018-06-15T03:19:11.029Z,4.30
2018-06-15T03:21:39.873Z,4.10
2018-06-15T03:24:08.916Z,4.03
2018-06-15T03:26:37.677Z,4.20
2018-06-15T03:29:06.545Z,4.63
2018-06-15T03:31:35.438Z,4.47
2018-06-15T03:34:04.507Z,4.10
2018-06-15T03:36:33.558Z,4.53
2018-06-15T03:39:02.611Z,4.90
2018-06-15T03:41:31.452Z,4.30
2018-06-15T03:44:00.287Z,4.37
2018-06-15T03:46:29.105Z,4.60
2018-06-15T03:48:58.011Z,4.53
2018-06-15T03:51:26.873Z,5.37
2018-06-15T03:53:55.901Z,4.20
2018-06-15T03:56:24.709Z,5.00
2018-06-15T03:58:53.444Z,4.47
2018-06-15T04:01:22.401Z,4.53
2018-06-15T04:03:51.434Z,4.77
2018-06-15T04:06:20.297Z,4.37
2018-06-15T04:08:49.187Z,4.53
2018-06-15T04:11:18.331Z,5.30
2018-06-15T04:13:47.307Z,4.93
2018-06-15T04:16:16.098Z,5.77
2018-06-15T04:18:44.993Z,6.07
2018-06-15T04:21:13.812Z,5.40
2018-06-15T04:23:42.904Z,5.50
2018-06-15T04:26:11.771Z,5.20
2018-06-15T04:28:40.701Z,6.37
2018-06-15T04:31:09.987Z,4.97
2018-06-15T04:33:39.393Z,5.93
2018-06-15T04:36:08.329Z,5.47
2018-06-15T04:38:37.364Z,5.47
2018-06-15T04:41:06.501Z,5.77
2018-06-15T04:43:35.495Z,5.70
2018-06-15T04:46:04.671Z,4.70
2018-06-15T04:48:33.566Z,5.50
2018-06-15T04:51:02.515Z,5.63
2018-06-15T04:53:31.357Z,5.27
2018-06-15T04:56:00.251Z,5.60
2018-06-15T04:58:30.235Z,6.00
2018-06-15T05:00:59.170Z,6.10
2018-06-15T05:03:27.913Z,6.80
2018-06-15T05:05:56.739Z,6.20
2018-06-15T05:08:25.587Z,4.80
2018-06-15T05:10:54.680Z,5.13
2018-06-15T05:13:23.560Z,4.67
2018-06-15T05:15:52.513Z,5.57
2018-06-15T05:18:21.334Z,5.50
2018-06-15T05:20:50.377Z,6.30
2018-06-15T05:23:19.376Z,5.23
2018-06-15T05:25:48.169Z,5.90
2018-06-15T05:28:17.246Z,5.90
2018-06-15T05:30:46.146Z,6.20
2018-06-15T05:33:14.908Z,6.73
2018-06-15T05:35:43.741Z,7.27
2018-06-15T05:38:12.922Z,5.90
2018-06-15T05:40:41.824Z,6.50
2018-06-15T05:43:10.686Z,6.53
2018-06-15T05:45:39.905Z,6.30
2018-06-15T05:48:08.938Z,6.30
2018-06-15T05:50:38.116Z,5.97
2018-06-15T05:53:07.290Z,5.77
2018-06-15T05:55:36.412Z,6.50
2018-06-15T05:58:05.381Z,6.50
2018-06-15T06:00:35.725Z,6.03
2018-06-15T06:03:04.981Z,6.97
2018-06-15T06:05:34.030Z,5.80
2018-06-15T06:08:02.809Z,6.97
2018-06-15T06:10:31.976Z,7.97
2018-06-15T06:13:00.950Z,7.50
2018-06-15T06:15:29.963Z,7.73
2018-06-15T06:17:58.779Z,6.27
2018-06-15T06:20:28.047Z,5.83
2018-06-15T06:22:56.984Z,6.93
2018-06-15T06:25:25.875Z,7.23
2018-06-15T06:27:55.209Z,6.90
2018-06-15T06:30:23.974Z,8.10
2018-06-15T06:32:53.093Z,7.20
2018-06-15T06:35:22.137Z,6.63
2018-06-15T06:37:51.148Z,7.60
2018-06-15T06:40:20.391Z,6.77
2018-06-15T06:42:49.206Z,7.07
2018-06-15T06:45:18.285Z,6.80
2018-06-15T06:47:47.172Z,6.63
2018-06-15T06:50:16.106Z,7.43
2018-06-15T06:52:45.276Z,6.30
2018-06-15T06:55:14.222Z,7.60
2018-06-15T06:57:43.261Z,8.03
2018-06-15T07:00:12.203Z,7.10
2018-06-15T07:02:41.313Z,6.63
2018-06-15T07:05:10.679Z,7.07
2018-06-15T07:07:39.543Z,5.90
2018-06-15T07:10:08.636Z,6.30
2018-06-15T07:12:37.530Z,5.47
2018-06-15T07:15:06.931Z,7.33
2018-06-15T07:17:35.979Z,6.90
2018-06-15T07:20:05.226Z,6.53
2018-06-15T07:22:34.436Z,6.73
2018-06-15T07:25:03.408Z,5.60
2018-06-15T07:27:32.394Z,6.70
2018-06-15T07:30:01.209Z,6.30
2018-06-15T07:32:30.276Z,6.23
2018-06-15T07:34:59.187Z,5.23
2018-06-15T07:37:28.389Z,5.20
2018-06-15T07:39:57.898Z,4.87
2018-06-15T07:42:26.657Z,4.67
2018-06-15T07:44:55.663Z,4.40
2018-06-15T07:47:24.572Z,4.43
2018-06-15T07:49:53.690Z,4.60
2018-06-15T07:52:23.105Z,7.07
2018-06-15T07:54:51.834Z,5.97
2018-06-15T07:57:20.716Z,5.57
2018-06-15T07:59:49.681Z,5.50
2018-06-15T08:02:18.850Z,5.40
2018-06-15T08:04:47.657Z,4.80
2018-06-15T08:07:16.698Z,4.40
2018-06-15T08:09:45.681Z,5.30
2018-06-15T08:12:14.521Z,4.93
2018-06-15T08:14:43.361Z,4.90
2018-06-15T08:17:12.110Z,5.67
2018-06-15T08:19:41.014Z,5.20
2018-06-15T08:22:09.977Z,4.90
2018-06-15T08:24:38.846Z,5.57
2018-06-15T08:27:07.808Z,5.37
2018-06-15T08:29:36.527Z,5.40
2018-06-15T08:32:05.697Z,4.50
2018-06-15T08:34:34.719Z,4.90
2018-06-15T08:37:03.634Z,5.53
2018-06-15T08:39:32.511Z,5.40
2018-06-15T08:42:01.578Z,4.60
2018-06-15T08:44:30.499Z,5.27
2018-06-15T08:46:59.515Z,6.30
2018-06-15T08:49:28.704Z,5.63
2018-06-15T08:51:57.781Z,6.60
2018-06-15T08:54:26.802Z,6.30
2018-06-15T08:56:55.689Z,7.07
2018-06-15T08:59:24.910Z,6.97
2018-06-15T09:01:53.839Z,5.57
2018-06-15T09:04:23.115Z,6.43
2018-06-15T09:06:52.358Z,5.83
2018-06-15T09:09:22.324Z,6.37
2018-06-15T09:11:51.182Z,5.87
2018-06-15T09:14:20.187Z,4.53
2018-06-15T09:16:49.240Z,5.53
2018-06-15T09:19:18.283Z,5.73
2018-06-15T09:21:47.442Z,5.00
2018-06-15T09:24:16.296Z,4.60
2018-06-15T09:26:45.337Z,6.00
2018-06-15T09:29:14.350Z,4.77
2018-06-15T09:31:43.393Z,6.00
2018-06-15T09:34:12.227Z,4.87
2018-06-15T09:36:41.009Z,4.70
2018-06-15T09:39:11.469Z,5.60
2018-06-15T09:41:41.093Z,5.57
2018-06-15T09:44:09.877Z,5.70
2018-06-15T09:46:38.885Z,4.70
2018-06-15T09:49:07.926Z,5.97
2018-06-15T09:51:36.841Z,6.53
2018-06-15T09:54:05.695Z,5.83
2018-06-15T09:56:34.656Z,5.90
2018-06-15T09:59:03.884Z,4.50
2018-06-15T10:01:32.845Z,4.57
2018-06-15T10:04:01.714Z,6.83
2018-06-15T10:06:30.642Z,6.23
2018-06-15T10:08:59.597Z,5.90
2018-06-15T10:11:28.504Z,5.03
2018-06-15T10:13:58.114Z,5.80
2018-06-15T10:16:27.630Z,5.70
2018-06-15T10:18:56.711Z,4.80
2018-06-15T10:21:25.623Z,5.00
2018-06-15T10:23:54.754Z,4.00
2018-06-15T10:26:23.981Z,4.73
2018-06-15T10:28:52.847Z,5.17
2018-06-15T10:31:21.898Z,4.90
2018-06-15T10:33:53.368Z,5.40
2018-06-15T10:36:22.440Z,5.10
2018-06-15T10:38:51.433Z,6.20
2018-06-15T10:41:20.640Z,4.90
2018-06-15T10:43:49.458Z,4.63
2018-06-15T10:46:18.991Z,5.37
2018-06-15T10:48:47.874Z,5.37
2018-06-15T10:51:17.357Z,5.20
2018-06-15T10:53:46.368Z,5.93
2018-06-15T10:56:15.386Z,5.83
2018-06-15T10:58:44.503Z,4.23
2018-06-15T11:01:13.688Z,3.80
2018-06-15T11:03:42.748Z,4.60
2018-06-15T11:06:11.867Z,5.53
2018-06-15T11:08:40.634Z,5.10
2018-06-15T11:11:09.745Z,5.77
2018-06-15T11:13:38.929Z,6.07
2018-06-15T11:16:08.144Z,4.47
2018-06-15T11:18:37.025Z,6.10
2018-06-15T11:21:06.333Z,5.50
2018-06-15T11:23:35.213Z,5.70
2018-06-15T11:26:04.234Z,5.07
2018-06-15T11:28:32.937Z,6.40
2018-06-15T11:31:01.891Z,6.23
2018-06-15T11:33:30.794Z,6.20
2018-06-15T11:35:59.894Z,4.90
2018-06-15T11:38:29.087Z,4.77
2018-06-15T11:40:58.089Z,4.70
2018-06-15T11:43:27.027Z,3.93
2018-06-15T11:45:56.231Z,4.07
2018-06-15T11:48:25.318Z,3.70
2018-06-15T11:50:54.485Z,3.83
2018-06-15T11:53:23.413Z,3.37
2018-06-15T11:55:52.384Z,3.13
2018-06-15T11:58:21.356Z,3.70
2018-06-15T12:00:50.160Z,3.37
2018-06-15T12:03:19.542Z,3.83
2018-06-15T12:05:50.088Z,4.90
2018-06-15T12:08:19.563Z,3.90
2018-06-15T12:10:49.266Z,4.20
2018-06-15T12:13:18.689Z,3.97
2018-06-15T12:15:47.583Z,4.57
2018-06-15T12:18:16.669Z,3.73
2018-06-15T12:20:45.671Z,4.93
2018-06-15T12:23:14.722Z,3.07
2018-06-15T12:25:43.645Z,3.07
2018-06-15T12:28:13.526Z,3.30
2018-06-15T12:30:42.396Z,2.40
2018-06-15T12:33:13.695Z,2.83
2018-06-15T12:35:42.622Z,2.80
2018-06-15T12:38:11.433Z,3.70
2018-06-15T12:40:40.361Z,2.50
2018-06-15T12:43:09.385Z,3.30
2018-06-15T12:45:38.469Z,2.50
2018-06-15T12:48:07.402Z,2.40
2018-06-15T12:50:36.343Z,4.17
2018-06-15T12:53:05.652Z,3.10
2018-06-15T12:55:35.641Z,3.43
2018-06-15T12:58:05.003Z,3.07
2018-06-15T13:00:34.159Z,3.97
2018-06-15T13:03:03.385Z,3.27
2018-06-15T13:05:32.354Z,4.00
2018-06-15T13:08:01.384Z,4.13
2018-06-15T13:10:30.135Z,3.43
2018-06-15T13:12:59.045Z,3.50
2018-06-15T13:15:27.833Z,3.83
2018-06-15T13:17:57.082Z,3.37
2018-06-15T13:20:26.652Z,3.00
2018-06-15T13:22:55.650Z,3.07
2018-06-15T13:25:24.367Z,3.30
2018-06-15T13:27:53.278Z,3.73
2018-06-15T13:30:22.089Z,2.50
2018-06-15T13:32:51.047Z,2.77
2018-06-15T13:35:19.883Z,2.77
2018-06-15T13:37:49.017Z,2.80
2018-06-15T13:40:18.599Z,2.20
2018-06-15T13:42:47.463Z,2.67
2018-06-15T13:45:16.617Z,2.80
2018-06-15T13:47:45.607Z,2.57
2018-06-15T13:50:14.545Z,2.73
2018-06-15T13:52:43.454Z,1.70
2018-06-15T13:55:12.474Z,2.30
2018-06-15T13:57:41.347Z,2.20
2018-06-15T14:00:10.121Z,2.33
2018-06-15T14:02:38.914Z,2.00
2018-06-15T14:05:07.702Z,2.60
2018-06-15T14:07:36.797Z,2.13
2018-06-15T14:10:05.770Z,2.70
2018-06-15T14:12:34.683Z,2.40
2018-06-15T14:15:03.572Z,2.90
2018-06-15T14:17:32.690Z,2.50
2018-06-15T14:20:01.715Z,2.30
2018-06-15T14:22:30.886Z,2.73
2018-06-15T14:24:59.742Z,2.97
2018-06-15T14:27:28.722Z,2.50
2018-06-15T14:29:58.757Z,4.10
2018-06-15T14:32:28.392Z,3.00
2018-06-15T14:34:58.043Z,2.80
2018-06-15T14:37:27.761Z,2.70
2018-06-15T14:39:57.497Z,2.77
2018-06-15T14:42:27.153Z,3.27
2018-06-15T14:44:56.789Z,2.90
2018-06-15T14:47:26.910Z,2.90
2018-06-15T14:49:56.545Z,3.10
2018-06-15T14:52:25.929Z,2.83
2018-06-15T14:54:55.610Z,3.77
2018-06-15T14:57:24.453Z,2.67
2018-06-15T14:59:53.663Z,4.87
2018-06-15T15:02:23.001Z,3.63
2018-06-15T15:04:51.871Z,3.13
2018-06-15T15:07:21.137Z,3.33
2018-06-15T15:09:51.071Z,3.17
2018-06-15T15:12:20.069Z,2.90
2018-06-15T15:14:50.604Z,3.70
2018-06-15T15:17:19.894Z,3.13
2018-06-15T15:19:48.963Z,3.47
2018-06-15T15:22:19.325Z,3.40
2018-06-15T15:24:48.275Z,3.20
2018-06-15T15:27:17.366Z,3.40
2018-06-15T15:29:46.613Z,3.97
2018-06-15T15:32:15.839Z,3.90
2018-06-15T15:34:44.873Z,4.20
2018-06-15T15:37:13.777Z,3.27
2018-06-15T15:39:42.919Z,2.93
2018-06-15T15:42:11.855Z,3.20
2018-06-15T15:44:40.773Z,2.70
2018-06-15T15:47:09.701Z,2.40
2018-06-15T15:49:38.696Z,3.03
2018-06-15T15:52:07.898Z,3.13
2018-06-15T15:54:37.244Z,2.67
2018-06-15T15:57:06.366Z,3.07
2018-06-15T15:59:35.301Z,2.83
2018-06-15T16:02:06.876Z,2.50
2018-06-15T16:04:36.957Z,3.57
2018-06-15T16:07:06.863Z,3.07
2018-06-15T16:09:35.939Z,2.50
2018-06-15T16:12:04.934Z,2.97
2018-06-15T16:14:33.976Z,2.63
2018-06-15T16:17:02.915Z,3.07
2018-06-15T16:19:34.257Z,2.90
2018-06-15T16:22:03.463Z,3.17
2018-06-15T16:24:33.763Z,2.63
2018-06-15T16:27:03.403Z,2.60
2018-06-15T16:29:32.583Z,2.97
2018-06-15T16:32:01.994Z,3.70
2018-06-15T16:34:31.128Z,3.47
2018-06-15T16:37:00.328Z,2.93
2018-06-15T16:39:29.918Z,2.70
2018-06-15T16:41:59.356Z,2.73
2018-06-15T16:44:28.522Z,2.60
2018-06-15T16:46:57.784Z,2.90
2018-06-15T16:49:27.160Z,3.00
2018-06-15T16:51:56.925Z,3.20
2018-06-15T16:54:26.482Z,4.00
2018-06-15T16:56:55.707Z,3.23
2018-06-15T16:59:25.521Z,3.63
2018-06-15T17:01:55.896Z,3.00
2018-06-15T17:04:25.203Z,3.50
2018-06-15T17:06:54.255Z,3.30
2018-06-15T17:09:24.480Z,3.60
2018-06-15T17:11:53.783Z,4.20
2018-06-15T17:14:22.970Z,4.10
2018-06-15T17:16:53.828Z,6.40
2018-06-15T17:19:23.601Z,4.97
2018-06-15T17:21:54.030Z,4.30
2018-06-15T17:24:23.119Z,4.23
2018-06-15T17:26:52.452Z,4.17
2018-06-15T17:29:21.958Z,3.50
2018-06-15T17:31:51.681Z,3.53
2018-06-15T17:34:21.181Z,3.57
2018-06-15T17:36:50.396Z,3.20
2018-06-15T17:39:19.672Z,3.17
2018-06-15T17:41:48.992Z,3.43
2018-06-15T17:44:18.251Z,3.77
2018-06-15T17:46:47.387Z,3.80
2018-06-15T17:49:16.901Z,3.90
2018-06-15T17:51:46.314Z,4.17
2018-06-15T17:54:15.568Z,3.87
2018-06-15T17:56:44.668Z,4.47
2018-06-15T17:59:14.340Z,4.03
2018-06-15T18:01:44.259Z,4.10
2018-06-15T18:04:13.713Z,3.70
2018-06-15T18:06:43.118Z,3.47
2018-06-15T18:09:14.677Z,3.97
2018-06-15T18:11:43.922Z,3.17
2018-06-15T18:14:13.694Z,3.57
2018-06-15T18:16:43.143Z,4.43
2018-06-15T18:19:12.580Z,4.67
2018-06-15T18:21:42.009Z,3.50
2018-06-15T18:24:11.336Z,5.33
2018-06-15T18:26:40.593Z,3.90
2018-06-15T18:29:09.882Z,2.70
2018-06-15T18:31:39.060Z,3.77
2018-06-15T18:34:08.065Z,3.80
2018-06-15T18:36:37.088Z,3.50
2018-06-15T18:39:12.651Z,2.60
2018-06-15T18:41:41.663Z,4.10
2018-06-15T18:44:10.946Z,4.57
2018-06-15T18:46:40.440Z,3.73
2018-06-15T18:49:09.834Z,4.43
2018-06-15T18:51:38.930Z,4.00
2018-06-15T18:54:07.799Z,5.20
2018-06-15T18:56:37.128Z,4.43
2018-06-15T18:59:06.139Z,4.97
2018-06-15T19:01:35.256Z,4.17
2018-06-15T19:04:04.316Z,4.40
2018-06-15T19:06:33.326Z,4.80
2018-06-15T19:09:02.302Z,4.53
2018-06-15T19:11:31.751Z,5.07
2018-06-15T19:14:00.946Z,4.37
2018-06-15T19:16:33.644Z,4.57
2018-06-15T19:19:02.873Z,4.80
2018-06-15T19:21:31.794Z,4.43
2018-06-15T19:24:01.104Z,4.80
2018-06-15T19:26:30.476Z,4.63
2018-06-15T19:28:59.671Z,5.87
2018-06-15T19:31:29.700Z,5.40
2018-06-15T19:33:58.713Z,5.07
2018-06-15T19:36:27.783Z,4.80
2018-06-15T19:38:57.142Z,5.00
2018-06-15T19:41:26.386Z,5.07
2018-06-15T19:43:55.527Z,5.33
2018-06-15T19:46:24.939Z,5.30
2018-06-15T19:48:54.196Z,5.80
2018-06-15T19:51:23.823Z,5.20
2018-06-15T19:53:53.302Z,5.57
2018-06-15T19:56:22.477Z,5.47
2018-06-15T19:58:51.613Z,6.50
2018-06-15T20:01:20.845Z,6.57
2018-06-15T20:03:49.842Z,7.03
2018-06-15T20:06:18.820Z,6.00
2018-06-15T20:08:47.959Z,7.73
2018-06-15T20:11:17.258Z,7.27
2018-06-15T20:13:46.187Z,8.10
2018-06-15T20:16:15.138Z,7.13
2018-06-15T20:18:44.366Z,7.03
2018-06-15T20:21:13.505Z,6.77
2018-06-15T20:23:42.607Z,6.80
2018-06-15T20:26:11.685Z,6.50
2018-06-15T20:28:41.011Z,6.90
2018-06-15T20:31:10.475Z,7.13
2018-06-15T20:33:40.027Z,6.97
2018-06-15T20:36:09.132Z,7.13
2018-06-15T20:38:38.174Z,7.10
2018-06-15T20:41:07.862Z,6.53
2018-06-15T20:43:37.444Z,6.40
2018-06-15T20:46:06.410Z,6.87
2018-06-15T20:48:35.385Z,6.47
2018-06-15T20:51:05.170Z,6.30
2018-06-15T20:53:34.430Z,7.47
2018-06-15T20:56:04.051Z,6.20
2018-06-15T20:58:33.505Z,7.63
2018-06-15T21:01:02.881Z,7.20
2018-06-15T21:03:34.322Z,6.27
2018-06-15T21:06:03.608Z,6.37
2018-06-15T21:08:32.738Z,6.40
2018-06-15T21:11:01.826Z,6.70
2018-06-15T21:13:31.037Z,6.67
2018-06-15T21:16:00.033Z,7.33
2018-06-15T21:18:28.930Z,5.93
2018-06-15T21:20:58.010Z,6.67
2018-06-15T21:23:27.130Z,6.10
2018-06-15T21:25:56.346Z,7.20
2018-06-15T21:28:25.585Z,7.00
2018-06-15T21:30:54.509Z,7.60
2018-06-15T21:33:23.696Z,6.73
2018-06-15T21:35:59.065Z,6.47
2018-06-15T21:38:28.009Z,6.40
2018-06-15T21:40:57.256Z,7.73
2018-06-15T21:43:26.214Z,6.80
2018-06-15T21:45:55.167Z,6.67
2018-06-15T21:48:23.947Z,6.13
2018-06-15T21:50:53.638Z,7.13
2018-06-15T21:53:22.388Z,7.20
2018-06-15T21:55:52.014Z,6.67
2018-06-15T21:58:20.916Z,7.67
2018-06-15T22:00:49.731Z,6.40
2018-06-15T22:03:19.017Z,7.57
2018-06-15T22:05:48.350Z,7.10
2018-06-15T22:08:17.256Z,7.50
2018-06-15T22:11:04.898Z,8.00
2018-06-15T22:13:34.443Z,7.67
2018-06-15T22:16:03.205Z,6.77
2018-06-15T22:18:32.158Z,6.97
2018-06-15T22:21:01.089Z,6.90
2018-06-15T22:23:30.138Z,7.70
2018-06-15T22:25:59.114Z,8.07
2018-06-15T22:28:28.395Z,7.70
2018-06-15T22:30:57.513Z,7.17
2018-06-15T22:33:26.409Z,7.53
2018-06-15T22:35:55.339Z,7.37
2018-06-15T22:38:24.339Z,7.97
2018-06-15T22:40:53.341Z,8.07
2018-06-15T22:43:22.236Z,8.03
2018-06-15T22:45:51.562Z,7.50
2018-06-15T22:48:20.440Z,7.70
2018-06-15T22:50:49.457Z,7.60
2018-06-15T22:53:18.667Z,7.80
2018-06-15T22:55:47.919Z,7.63
2018-06-15T22:58:17.237Z,7.90
2018-06-15T23:00:47.566Z,7.60
2018-06-15T23:03:18.021Z,8.20
2018-06-15T23:05:46.865Z,8.13
2018-06-15T23:08:15.809Z,7.20
2018-06-15T23:10:45.078Z,6.70
2018-06-15T23:13:13.927Z,7.40
2018-06-15T23:15:42.998Z,7.93
2018-06-15T23:18:11.768Z,7.10
2018-06-15T23:20:40.857Z,7.47
2018-06-15T23:23:10.116Z,8.00
2018-06-15T23:25:39.099Z,7.90
2018-06-15T23:28:08.235Z,8.70
2018-06-15T23:30:37.195Z,7.97
2018-06-15T23:33:06.215Z,8.60
2018-06-15T23:35:35.238Z,7.80
2018-06-15T23:38:04.151Z,8.63
2018-06-15T23:40:33.124Z,7.43
2018-06-15T23:43:02.199Z,8.43
2018-06-15T23:45:31.056Z,7.73
2018-06-15T23:48:00.060Z,8.30
2018-06-15T23:50:29.081Z,7.87
2018-06-15T23:52:58.366Z,8.83
2018-06-15T23:55:28.773Z,8.20
2018-06-15T23:57:57.813Z,8.40
